Portada
METAR-TAF:

METAR-TAF

Aeropuertos :

Aeropuerto de Andahuaylas

Andahuaylas, Perú

latitud: 13-43S, longitud: 073-21W, altitud: 3444 m

Observación

El informe se hizo hace 1 hora y 0 minutos, a las 16:00 UTC
Temperatura 11°C
Humedad 54%
Presión 1037 hPa
Visibilidad 10 km o más
Escasas nubes a una altura de 2000 ft
Nubes dispersas a una altura de 4000 ft

METAR: SPHY 151600Z /////KT 9999 FEW020 SCT040 11/02 Q1037 RMK BIRD HAZARD RWY 03/21 PP000

Hora: 12:00 (17:00 UTC)

Pronóstico

El informe se hizo hace 6 horas y 0 minutos, a las 11:00 UTC
Pronóstico válido del 15 a las 12 UTC al 16 a las 12 UTC
Viento 2 kt con dirección variable
Visibilidad 10 km o más
sin nubes por debajo de 1500 m y sin presencia de cumulonimbus.
Temporalmente
del 15 a las 16 UTC al 15 a las 22 UTC
Viento 12 kt del noreste

TAF: SPHY 151100Z 1512/1612 VRB02KT CAVOK TX15/1519Z TNM03/1611Z TEMPO 1516/1522 04012KT

Observaciones y pronósticos meteorológicos de más de 4000 aeropuertos (mensajes METAR y TAF).

Los puntos amarillos y rojos representan las estaciones disponibles.

Ponga el ratón en el punto deseado para ver el nombre de la estación.

Haga clic para ver las observaciones y los pronósticos meteorológicos.

Para cambiar el mapa : haga clic en los botones verdes con una cruz de color negro para hacer un zoom, en el botón verde con un guión para alejar o en las flechas verdes para mapas adyacentes.


METAR-TAF: